createdAt,value
2023-03-10T00:00:35.408Z,70.23
2023-03-10T00:03:01.955Z,69.73
2023-03-10T00:05:31.677Z,70.09
2023-03-10T00:07:58.233Z,68.89
2023-03-10T00:10:24.782Z,68.40
2023-03-10T00:12:51.301Z,68.30
2023-03-10T00:15:17.912Z,67.55
2023-03-10T00:17:44.419Z,67.97
2023-03-10T00:20:12.633Z,67.37
2023-03-10T00:22:39.657Z,68.22
2023-03-10T00:25:07.399Z,66.85
2023-03-10T00:27:33.979Z,67.72
2023-03-10T00:30:00.552Z,69.58
2023-03-10T00:32:28.132Z,70.05
2023-03-10T00:34:54.745Z,69.10
2023-03-10T00:37:21.523Z,70.43
2023-03-10T00:39:52.616Z,70.92
2023-03-10T00:42:19.411Z,70.63
2023-03-10T00:44:46.501Z,71.04
2023-03-10T00:47:13.092Z,70.85
2023-03-10T00:49:47.569Z,70.48
2023-03-10T00:52:14.107Z,69.69
2023-03-10T00:54:41.721Z,69.67
2023-03-10T00:57:09.158Z,69.74
2023-03-10T00:59:49.479Z,71.02
2023-03-10T01:02:20.013Z,72.00
2023-03-10T01:04:48.344Z,72.51
2023-03-10T01:07:14.984Z,73.13
2023-03-10T01:09:42.531Z,72.41
2023-03-10T01:12:09.224Z,73.29
2023-03-10T01:14:35.737Z,74.53
2023-03-10T01:17:04.054Z,74.26
2023-03-10T01:19:30.912Z,75.54
2023-03-10T01:21:57.423Z,76.55
2023-03-10T01:24:23.977Z,75.33
2023-03-10T01:26:50.499Z,76.18
2023-03-10T01:29:19.575Z,76.36
2023-03-10T01:31:46.192Z,76.84
2023-03-10T01:34:12.793Z,77.51
2023-03-10T01:36:41.422Z,76.96
2023-03-10T01:39:10.835Z,77.92
2023-03-10T01:41:39.136Z,78.06
2023-03-10T01:44:11.909Z,78.95
2023-03-10T01:46:47.036Z,79.13
2023-03-10T01:49:25.937Z,80.22
2023-03-10T01:52:05.091Z,80.25
2023-03-10T01:54:46.648Z,80.77
2023-03-10T01:57:14.878Z,80.20
2023-03-10T01:59:41.943Z,80.44
2023-03-10T02:02:10.136Z,79.41
2023-03-10T02:04:44.122Z,79.93
2023-03-10T02:07:12.937Z,79.34
2023-03-10T02:09:44.198Z,79.89
2023-03-10T02:12:13.031Z,80.03
2023-03-10T02:14:40.290Z,80.08
2023-03-10T02:17:11.052Z,79.77
2023-03-10T02:20:01.534Z,80.54
2023-03-10T02:22:29.097Z,79.59
2023-03-10T02:25:01.441Z,79.39
2023-03-10T02:27:33.534Z,79.46
2023-03-10T02:30:06.700Z,79.76
2023-03-10T02:32:39.425Z,79.53
2023-03-10T02:35:06.228Z,79.60
2023-03-10T02:37:38.619Z,79.89
2023-03-10T02:40:31.944Z,79.05
2023-03-10T02:43:13.903Z,78.24
2023-03-10T02:45:44.440Z,78.31
2023-03-10T02:48:14.851Z,78.47
2023-03-10T02:50:43.849Z,78.65
2023-03-10T02:53:20.728Z,78.91
2023-03-10T02:55:48.728Z,78.73
2023-03-10T02:58:16.082Z,78.87
2023-03-10T03:00:45.418Z,77.73
2023-03-10T03:03:15.172Z,77.66
2023-03-10T03:05:42.405Z,76.45
2023-03-10T03:08:09.861Z,76.66
2023-03-10T03:10:37.583Z,78.38
2023-03-10T03:13:06.023Z,77.81
2023-03-10T03:15:34.001Z,77.70
2023-03-10T03:18:01.386Z,76.25
2023-03-10T03:20:31.774Z,77.91
2023-03-10T03:22:59.123Z,76.96
2023-03-10T03:25:28.821Z,77.50
2023-03-10T03:27:57.484Z,78.05
2023-03-10T03:30:27.118Z,77.56
2023-03-10T03:32:55.615Z,78.00
2023-03-10T03:35:26.364Z,77.38
2023-03-10T03:37:53.849Z,77.98
2023-03-10T03:40:24.553Z,78.23
2023-03-10T03:42:52.662Z,79.16
2023-03-10T03:45:22.538Z,78.11
2023-03-10T03:47:50.279Z,77.56
2023-03-10T03:50:19.105Z,77.05
2023-03-10T03:52:46.342Z,77.16
2023-03-10T03:55:16.373Z,76.62
2023-03-10T03:57:45.422Z,76.71
2023-03-10T04:00:23.200Z,78.10
2023-03-10T04:02:56.251Z,78.29
2023-03-10T04:05:23.856Z,79.20
2023-03-10T04:07:50.778Z,79.13
2023-03-10T04:10:21.418Z,79.06
2023-03-10T04:12:47.980Z,77.82
2023-03-10T04:15:14.612Z,76.92
2023-03-10T04:17:41.737Z,76.85
2023-03-10T04:20:10.049Z,78.03
2023-03-10T04:22:42.404Z,79.47
2023-03-10T04:25:10.922Z,78.75
2023-03-10T04:27:38.029Z,79.37
2023-03-10T04:30:07.116Z,79.52
2023-03-10T04:32:38.885Z,79.73
2023-03-10T04:35:07.816Z,80.21
2023-03-10T04:37:34.440Z,80.14
2023-03-10T04:40:03.241Z,80.42
2023-03-10T04:42:31.125Z,80.40
2023-03-10T04:44:57.919Z,80.26
2023-03-10T04:47:25.150Z,80.41
2023-03-10T04:49:51.868Z,80.70
2023-03-10T04:52:19.023Z,79.44
2023-03-10T04:54:47.448Z,79.84
2023-03-10T04:57:15.735Z,79.98
2023-03-10T04:59:43.849Z,80.01
2023-03-10T05:02:10.810Z,80.19
2023-03-10T05:04:37.509Z,80.68
2023-03-10T05:07:06.286Z,81.01
2023-03-10T05:09:37.509Z,81.00
2023-03-10T05:12:05.435Z,80.95
2023-03-10T05:14:34.720Z,81.25
2023-03-10T05:17:01.463Z,81.36
2023-03-10T05:19:29.193Z,81.74
2023-03-10T05:21:58.216Z,81.10
2023-03-10T05:24:24.980Z,81.07
2023-03-10T05:26:51.561Z,81.06
2023-03-10T05:29:20.145Z,80.33
2023-03-10T05:31:54.181Z,80.57
2023-03-10T05:34:26.877Z,80.71
2023-03-10T05:36:56.572Z,79.34
2023-03-10T05:39:23.437Z,80.21
2023-03-10T05:41:53.066Z,80.61
2023-03-10T05:44:20.499Z,79.95
2023-03-10T05:46:47.163Z,78.56
2023-03-10T05:49:13.797Z,79.16
2023-03-10T05:51:40.419Z,77.84
2023-03-10T05:54:07.152Z,76.75
2023-03-10T05:56:33.741Z,78.86
2023-03-10T05:59:02.060Z,78.45
2023-03-10T06:01:31.349Z,76.72
2023-03-10T06:04:00.030Z,78.21
2023-03-10T06:06:26.637Z,77.25
2023-03-10T06:08:53.144Z,76.49
2023-03-10T06:11:19.884Z,76.19
2023-03-10T06:13:46.421Z,75.58
2023-03-10T06:16:13.063Z,75.69
2023-03-10T06:18:39.633Z,75.90
2023-03-10T06:21:13.207Z,76.48
2023-03-10T06:23:40.118Z,76.72
2023-03-10T06:26:13.230Z,77.25
2023-03-10T06:28:42.123Z,77.57
2023-03-10T06:31:13.375Z,78.07
2023-03-10T06:33:39.910Z,77.91
2023-03-10T06:36:08.566Z,77.18
2023-03-10T06:38:35.235Z,77.95
2023-03-10T06:41:01.837Z,78.17
2023-03-10T06:43:28.388Z,78.28
2023-03-10T06:45:54.947Z,78.40
2023-03-10T06:48:21.525Z,77.03
2023-03-10T06:50:50.093Z,75.69
2023-03-10T06:53:19.572Z,76.70
2023-03-10T06:55:59.965Z,76.50
2023-03-10T06:58:26.938Z,75.82
2023-03-10T07:00:53.529Z,76.94
2023-03-10T07:03:20.371Z,75.12
2023-03-10T07:05:47.606Z,75.45
2023-03-10T07:08:14.174Z,76.13
2023-03-10T07:10:40.751Z,76.63
2023-03-10T07:13:07.982Z,78.14
2023-03-10T07:15:34.520Z,76.23
2023-03-10T07:18:01.113Z,78.01
2023-03-10T07:20:27.641Z,78.88
2023-03-10T07:22:54.180Z,76.13
2023-03-10T07:25:20.688Z,77.20
2023-03-10T07:27:47.227Z,75.56
2023-03-10T07:30:14.148Z,74.62
2023-03-10T07:32:40.750Z,75.04
2023-03-10T07:35:07.735Z,76.54
2023-03-10T07:37:38.035Z,75.90
2023-03-10T07:40:07.068Z,75.94
2023-03-10T07:42:33.786Z,75.99
2023-03-10T07:45:00.393Z,74.36
2023-03-10T07:47:27.066Z,76.20
2023-03-10T07:49:53.637Z,73.52
2023-03-10T07:52:20.470Z,74.27
2023-03-10T07:54:47.017Z,74.62
2023-03-10T07:57:14.532Z,73.38
2023-03-10T07:59:42.236Z,73.33
2023-03-10T08:02:12.318Z,70.78
2023-03-10T08:04:39.636Z,70.74
2023-03-10T08:07:06.508Z,70.14
2023-03-10T08:09:33.272Z,68.67
2023-03-10T08:12:01.210Z,67.98
2023-03-10T08:14:29.345Z,67.92
2023-03-10T08:16:56.691Z,67.99
2023-03-10T08:19:27.706Z,65.93
2023-03-10T08:21:55.950Z,67.04
2023-03-10T08:24:22.536Z,66.55
2023-03-10T08:26:49.156Z,65.00
2023-03-10T08:29:15.903Z,64.94
2023-03-10T08:31:42.978Z,65.19
2023-03-10T08:34:10.075Z,66.22
2023-03-10T08:36:36.713Z,66.16
2023-03-10T08:39:05.717Z,67.31
2023-03-10T08:41:38.773Z,69.15
2023-03-10T08:44:05.892Z,70.79
2023-03-10T08:46:33.066Z,70.59
2023-03-10T08:48:59.754Z,71.54
2023-03-10T08:51:27.127Z,73.18
2023-03-10T08:53:54.304Z,72.57
2023-03-10T08:56:22.701Z,74.23
2023-03-10T08:59:00.682Z,73.36
2023-03-10T09:01:30.253Z,73.69
2023-03-10T09:03:57.360Z,73.66
2023-03-10T09:06:25.069Z,73.78
2023-03-10T09:08:52.315Z,73.15
2023-03-10T09:11:28.092Z,73.21
2023-03-10T09:13:55.053Z,73.92
2023-03-10T09:16:21.634Z,72.60
2023-03-10T09:18:48.838Z,74.76
2023-03-10T09:21:17.488Z,74.69
2023-03-10T09:23:45.979Z,75.01
2023-03-10T09:26:13.040Z,73.29
2023-03-10T09:28:39.796Z,74.44
2023-03-10T09:31:08.183Z,73.78
2023-03-10T09:33:35.559Z,74.61
2023-03-10T09:36:07.348Z,73.57
2023-03-10T09:38:35.443Z,73.95
2023-03-10T09:41:23.142Z,72.59
2023-03-10T09:44:27.391Z,73.87
2023-03-10T09:47:21.296Z,73.07
2023-03-10T09:49:55.153Z,71.42
2023-03-10T09:52:31.268Z,72.55
2023-03-10T09:55:06.378Z,71.09
2023-03-10T09:57:34.299Z,72.08
2023-03-10T10:00:08.248Z,72.03
2023-03-10T10:02:41.512Z,72.47
2023-03-10T10:05:18.806Z,71.59
2023-03-10T10:07:50.483Z,73.77
2023-03-10T10:10:16.907Z,71.16
2023-03-10T10:12:44.506Z,73.48
2023-03-10T10:15:22.279Z,71.33
2023-03-10T10:18:22.675Z,72.18
2023-03-10T10:20:59.130Z,72.39
2023-03-10T10:23:32.767Z,72.03
2023-03-10T10:26:08.720Z,72.97
2023-03-10T10:29:36.339Z,70.88
2023-03-10T10:32:11.643Z,72.09
2023-03-10T10:34:43.461Z,70.99
2023-03-10T10:37:35.382Z,71.16
2023-03-10T10:40:23.842Z,71.51
2023-03-10T10:42:55.339Z,73.29
2023-03-10T10:45:27.397Z,71.43
2023-03-10T10:47:55.674Z,71.14
2023-03-10T10:50:25.626Z,72.00
2023-03-10T10:53:15.856Z,71.06
2023-03-10T10:55:45.393Z,70.87
2023-03-10T10:58:35.537Z,71.64
2023-03-10T11:01:08.963Z,70.59
2023-03-10T11:03:38.499Z,71.85
2023-03-10T11:06:25.053Z,71.39
2023-03-10T11:08:52.240Z,69.24
2023-03-10T11:11:29.352Z,69.87
2023-03-10T11:14:05.484Z,70.55
2023-03-10T11:16:40.903Z,70.75
2023-03-10T11:19:17.161Z,70.65
2023-03-10T11:21:51.806Z,70.57
2023-03-10T11:24:26.058Z,70.72
2023-03-10T11:27:01.652Z,70.55
2023-03-10T11:29:35.142Z,71.15
2023-03-10T11:32:18.810Z,71.27
2023-03-10T11:34:50.228Z,71.67
2023-03-10T11:37:30.003Z,69.99
2023-03-10T11:40:04.292Z,71.85
2023-03-10T11:42:43.059Z,71.97
2023-03-10T11:45:18.022Z,71.01
2023-03-10T11:48:22.200Z,70.92
2023-03-10T11:50:55.027Z,71.72
2023-03-10T11:53:44.103Z,73.92
2023-03-10T11:56:15.858Z,73.20
2023-03-10T11:58:48.354Z,72.92
2023-03-10T12:01:30.655Z,72.85
2023-03-10T12:04:12.835Z,73.09
2023-03-10T12:06:55.877Z,73.64
2023-03-10T12:09:51.920Z,75.06
2023-03-10T12:12:40.130Z,75.40
2023-03-10T12:15:25.109Z,75.48
2023-03-10T12:17:53.929Z,74.38
2023-03-10T12:20:20.453Z,75.19
2023-03-10T12:22:50.291Z,76.37
2023-03-10T12:25:29.077Z,76.70
2023-03-10T12:28:11.515Z,76.42
2023-03-10T12:30:58.924Z,76.42
2023-03-10T12:33:37.682Z,76.84
2023-03-10T12:36:13.159Z,76.24
2023-03-10T12:39:10.511Z,75.88
2023-03-10T12:41:56.375Z,74.74
2023-03-10T12:44:44.060Z,74.90
2023-03-10T12:47:18.936Z,75.87
2023-03-10T12:50:10.411Z,75.12
2023-03-10T12:52:47.742Z,74.66
2023-03-10T12:55:21.425Z,75.85
2023-03-10T12:57:56.478Z,76.13
2023-03-10T13:00:44.097Z,76.61
2023-03-10T13:03:10.578Z,76.70
2023-03-10T13:05:42.387Z,76.63
2023-03-10T13:08:17.609Z,76.01
2023-03-10T13:10:44.733Z,76.09
2023-03-10T13:13:16.040Z,76.99
2023-03-10T13:15:42.740Z,75.45
2023-03-10T13:18:20.749Z,76.36
2023-03-10T13:20:48.477Z,76.97
2023-03-10T13:23:27.733Z,77.07
2023-03-10T13:25:56.675Z,76.95
2023-03-10T13:28:25.084Z,76.79
2023-03-10T13:30:51.690Z,75.79
2023-03-10T13:33:26.056Z,75.92
2023-03-10T13:35:53.111Z,76.52
2023-03-10T13:38:21.821Z,76.07
2023-03-10T13:40:57.886Z,76.21
2023-03-10T13:43:35.115Z,76.56
2023-03-10T13:46:03.276Z,77.87
2023-03-10T13:48:32.359Z,77.84
2023-03-10T13:51:20.448Z,76.71
2023-03-10T13:53:49.904Z,76.93
2023-03-10T13:56:17.913Z,78.12
2023-03-10T13:58:46.066Z,77.07
2023-03-10T14:01:23.561Z,78.13
2023-03-10T14:04:08.866Z,78.10
2023-03-10T14:06:43.014Z,77.51
2023-03-10T14:09:23.305Z,77.68
2023-03-10T14:11:50.776Z,77.78
2023-03-10T14:14:32.263Z,78.94
2023-03-10T14:17:04.338Z,78.75
2023-03-10T14:19:43.017Z,79.06
2023-03-10T14:22:24.803Z,78.27
2023-03-10T14:24:51.700Z,78.48
2023-03-10T14:27:18.664Z,78.42
2023-03-10T14:29:56.725Z,79.29
2023-03-10T14:32:24.880Z,78.55
2023-03-10T14:34:51.956Z,78.54
2023-03-10T14:37:18.805Z,77.45
2023-03-10T14:39:45.515Z,77.89
2023-03-10T14:42:24.033Z,77.30
2023-03-10T14:44:51.197Z,78.93
2023-03-10T14:47:17.987Z,78.75
2023-03-10T14:49:44.787Z,78.57
2023-03-10T14:52:16.529Z,78.62
2023-03-10T14:54:42.915Z,76.26
2023-03-10T14:57:11.972Z,77.01
2023-03-10T14:59:39.776Z,77.52
2023-03-10T15:02:14.932Z,76.44
2023-03-10T15:04:41.536Z,75.71
2023-03-10T15:07:09.903Z,75.99
2023-03-10T15:09:36.633Z,76.53
2023-03-10T15:12:03.645Z,76.16
2023-03-10T15:14:30.573Z,74.98
2023-03-10T15:16:57.198Z,75.21
2023-03-10T15:19:26.795Z,74.87
2023-03-10T15:21:54.544Z,74.62
2023-03-10T15:24:21.355Z,75.12
2023-03-10T15:26:50.841Z,74.73
2023-03-10T15:29:19.813Z,75.41
2023-03-10T15:31:46.742Z,75.23
2023-03-10T15:34:13.662Z,76.45
2023-03-10T15:36:40.826Z,76.88
2023-03-10T15:39:07.582Z,76.57
2023-03-10T15:41:38.444Z,76.94
2023-03-10T15:44:06.158Z,76.80
2023-03-10T15:46:33.101Z,77.46
2023-03-10T15:49:03.437Z,77.71
2023-03-10T15:51:30.263Z,77.91
2023-03-10T15:53:56.921Z,78.33
2023-03-10T15:56:23.576Z,76.89
2023-03-10T15:58:50.535Z,76.28
2023-03-10T16:01:20.472Z,76.82
2023-03-10T16:03:50.403Z,76.72
2023-03-10T16:06:17.003Z,76.67
2023-03-10T16:08:43.625Z,77.41
2023-03-10T16:11:20.930Z,78.04
2023-03-10T16:13:51.577Z,77.88
2023-03-10T16:16:20.336Z,77.22
2023-03-10T16:18:47.441Z,78.45
2023-03-10T16:21:18.076Z,78.01
2023-03-10T16:23:45.388Z,77.68
2023-03-10T16:26:20.984Z,78.54
2023-03-10T16:28:50.795Z,78.40
2023-03-10T16:31:19.958Z,78.55
2023-03-10T16:33:48.182Z,77.07
2023-03-10T16:36:17.809Z,77.43
2023-03-10T16:38:44.701Z,76.67
2023-03-10T16:41:12.166Z,77.37
2023-03-10T16:43:39.663Z,77.87
2023-03-10T16:46:11.041Z,78.25
2023-03-10T16:48:42.863Z,78.08
2023-03-10T16:51:18.042Z,78.70
2023-03-10T16:53:45.203Z,78.22
2023-03-10T16:56:11.876Z,79.45
2023-03-10T16:58:38.556Z,79.03
2023-03-10T17:01:05.295Z,79.31
2023-03-10T17:03:39.366Z,78.80
2023-03-10T17:06:12.028Z,78.70
2023-03-10T17:08:40.042Z,78.95
2023-03-10T17:11:17.855Z,78.78
2023-03-10T17:13:47.145Z,78.64
2023-03-10T17:16:18.679Z,78.90
2023-03-10T17:18:46.280Z,78.75
2023-03-10T17:21:25.205Z,78.47
2023-03-10T17:23:52.388Z,77.13
2023-03-10T17:26:20.950Z,77.44
2023-03-10T17:28:49.534Z,77.21
2023-03-10T17:31:23.451Z,77.04
2023-03-10T17:41:36.371Z,74.74
2023-03-10T17:48:08.746Z,73.17
2023-03-10T17:50:47.448Z,72.60
2023-03-10T17:53:15.317Z,73.54
2023-03-10T17:55:48.423Z,73.24
2023-03-10T17:58:17.670Z,75.09
2023-03-10T18:00:45.431Z,73.48
2023-03-10T18:03:12.200Z,72.54
2023-03-10T18:05:42.721Z,73.35
2023-03-10T18:08:10.562Z,74.03
2023-03-10T18:10:38.207Z,74.03
2023-03-10T18:13:08.059Z,74.47
2023-03-10T18:15:35.123Z,74.73
2023-03-10T18:18:03.247Z,75.54
2023-03-10T18:20:29.898Z,75.96
2023-03-10T18:22:56.486Z,76.44
2023-03-10T18:25:23.016Z,76.89
2023-03-10T18:27:49.528Z,76.62
2023-03-10T18:30:16.338Z,77.50
2023-03-10T18:32:43.280Z,78.77
2023-03-10T18:35:11.292Z,78.57
2023-03-10T18:37:37.909Z,78.63
2023-03-10T18:40:06.005Z,78.90
2023-03-10T18:42:33.189Z,78.98
2023-03-10T18:44:59.768Z,79.53
2023-03-10T18:47:26.281Z,79.54
2023-03-10T18:49:52.815Z,79.67
2023-03-10T18:52:19.333Z,78.33
2023-03-10T18:54:49.063Z,78.63
2023-03-10T18:57:15.704Z,78.09
2023-03-10T18:59:42.686Z,79.34
2023-03-10T19:02:16.171Z,78.91
2023-03-10T19:04:47.645Z,78.62
2023-03-10T19:07:15.743Z,78.84
2023-03-10T19:09:42.305Z,78.55
2023-03-10T19:12:10.313Z,78.20
2023-03-10T19:14:36.942Z,78.59
2023-03-10T19:17:03.928Z,78.65
2023-03-10T19:19:30.579Z,77.99
2023-03-10T19:21:57.127Z,78.32
2023-03-10T19:24:23.984Z,78.30
2023-03-10T19:26:50.678Z,78.17
2023-03-10T19:29:17.226Z,77.53
2023-03-10T19:31:43.854Z,77.82
2023-03-10T19:34:10.581Z,77.21
2023-03-10T19:36:37.122Z,77.31
2023-03-10T19:39:03.653Z,77.34
2023-03-10T19:41:30.209Z,76.35
2023-03-10T19:43:57.927Z,77.24
2023-03-10T19:46:24.600Z,76.54
2023-03-10T19:48:51.250Z,75.88
2023-03-10T19:51:29.081Z,75.74
2023-03-10T19:53:57.352Z,76.02
2023-03-10T19:56:26.330Z,74.95
2023-03-10T19:58:52.948Z,73.83
2023-03-10T20:01:26.257Z,74.63
2023-03-10T20:03:55.710Z,74.54
2023-03-10T20:06:23.344Z,73.48
2023-03-10T20:08:50.056Z,74.12
2023-03-10T20:11:18.596Z,73.31
2023-03-10T20:13:46.210Z,72.93
2023-03-10T20:16:14.468Z,73.29
2023-03-10T20:18:41.815Z,73.44
2023-03-10T20:21:08.635Z,73.41
2023-03-10T20:23:35.389Z,72.21
2023-03-10T20:26:04.693Z,73.92
2023-03-10T20:28:32.115Z,73.27
2023-03-10T20:30:58.795Z,72.81
2023-03-10T20:33:26.070Z,73.03
2023-03-10T20:35:52.666Z,74.32
2023-03-10T20:38:19.197Z,73.90
2023-03-10T20:40:45.759Z,72.41
2023-03-10T20:43:12.381Z,73.58
2023-03-10T20:45:39.801Z,73.11
2023-03-10T20:48:06.921Z,73.52
2023-03-10T20:50:34.375Z,72.42
2023-03-10T20:53:01.007Z,72.32
2023-03-10T20:55:30.642Z,73.08
2023-03-10T20:57:59.496Z,72.79
2023-03-10T21:00:28.052Z,72.88
2023-03-10T21:02:57.170Z,71.48
2023-03-10T21:05:25.419Z,71.34
2023-03-10T21:07:52.192Z,71.30
2023-03-10T21:10:19.297Z,71.81
2023-03-10T21:12:46.085Z,72.44
2023-03-10T21:15:16.681Z,73.36
2023-03-10T21:17:43.559Z,73.67
2023-03-10T21:20:10.982Z,74.08
2023-03-10T21:22:39.338Z,74.42
2023-03-10T21:25:07.969Z,74.53
2023-03-10T21:27:35.498Z,74.77
2023-03-10T21:30:04.684Z,73.87
2023-03-10T21:32:32.298Z,74.13
2023-03-10T21:34:58.918Z,74.03
2023-03-10T21:37:25.528Z,73.40
2023-03-10T21:39:53.884Z,74.18
2023-03-10T21:42:20.849Z,73.20
2023-03-10T21:44:48.481Z,72.66
2023-03-10T21:47:15.058Z,73.83
2023-03-10T21:49:41.718Z,72.88
2023-03-10T21:52:09.428Z,73.02
2023-03-10T21:54:35.962Z,72.17
2023-03-10T21:57:02.520Z,71.79
2023-03-10T21:59:29.070Z,72.71
2023-03-10T22:01:55.670Z,72.11
2023-03-10T22:04:22.300Z,72.06
2023-03-10T22:06:48.889Z,71.95
2023-03-10T22:09:15.616Z,71.50
2023-03-10T22:11:42.137Z,71.80
2023-03-10T22:14:08.669Z,71.75
2023-03-10T22:16:35.172Z,71.63
2023-03-10T22:19:02.322Z,72.38
2023-03-10T22:21:28.868Z,71.16
2023-03-10T22:23:55.411Z,71.25
2023-03-10T22:26:21.899Z,71.30
2023-03-10T22:28:48.431Z,70.94
2023-03-10T22:31:15.706Z,71.61
2023-03-10T22:33:42.407Z,71.56
2023-03-10T22:36:12.421Z,71.51
2023-03-10T22:38:39.170Z,70.74
2023-03-10T22:41:11.124Z,71.29
2023-03-10T22:43:37.712Z,71.64
2023-03-10T22:46:13.237Z,71.52
2023-03-10T22:48:40.614Z,71.16
2023-03-10T22:51:13.240Z,71.46
2023-03-10T22:53:39.780Z,71.34
2023-03-10T22:56:06.503Z,71.91
2023-03-10T22:58:33.222Z,71.40
2023-03-10T23:00:59.937Z,71.11
2023-03-10T23:03:26.491Z,70.71
2023-03-10T23:05:53.066Z,71.05
2023-03-10T23:08:19.615Z,71.57
2023-03-10T23:10:46.151Z,72.51
2023-03-10T23:13:15.570Z,71.98
2023-03-10T23:15:43.345Z,72.50
2023-03-10T23:18:10.546Z,72.39
2023-03-10T23:20:40.610Z,72.11
2023-03-10T23:23:08.743Z,72.35
2023-03-10T23:25:42.028Z,72.83
2023-03-10T23:28:10.722Z,72.50
2023-03-10T23:30:40.384Z,73.28
2023-03-10T23:33:07.606Z,72.94
2023-03-10T23:35:35.195Z,72.89
2023-03-10T23:38:04.972Z,72.66
2023-03-10T23:40:32.584Z,73.04
2023-03-10T23:43:02.368Z,73.22
2023-03-10T23:45:31.055Z,73.86
2023-03-10T23:47:59.522Z,74.49
2023-03-10T23:50:29.384Z,73.82
2023-03-10T23:52:56.711Z,73.98
2023-03-10T23:55:27.261Z,73.59
2023-03-10T23:57:54.331Z,74.02
